Time;durP1;ratioP1;P1;durP2;ratioP2;P2;SDS_P1;SDS_P2;PMS_P1;PMS_P2;Temp;Humidity;BMP_temperature;BMP_pressure;BME280_temperature;BME280_humidity;BME280_pressure;Samples;Min_cycle;Max_cycle;Signal;HPM_P1;HPM_P2
2024/03/14 00:01:01;;;;;;;1.67;0.80;;;11.00;99.90;;;;;;5091798;28;20183;-84
2024/03/14 00:03:28;;;;;;;1.50;0.52;;;11.00;99.90;;;;;;5070090;28;20036;-85
2024/03/14 00:05:54;;;;;;;2.28;1.08;;;11.00;99.90;;;;;;5106156;28;20121;-85
2024/03/14 00:08:21;;;;;;;3.20;0.98;;;11.00;99.90;;;;;;5076758;28;20503;-84
2024/03/14 00:10:47;;;;;;;1.45;0.82;;;11.00;99.90;;;;;;5087494;28;20036;-85
2024/03/14 00:13:13;;;;;;;1.52;0.85;;;10.90;99.90;;;;;;5091022;28;20036;-85
2024/03/14 00:15:39;;;;;;;2.17;1.30;;;10.90;99.90;;;;;;5091161;28;20077;-85
2024/03/14 00:18:04;;;;;;;0.60;0.50;;;10.90;99.90;;;;;;5088865;28;20499;-85
2024/03/14 00:20:31;;;;;;;3.95;0.98;;;10.90;99.90;;;;;;5091228;28;20123;-86
2024/03/14 00:22:58;;;;;;;1.30;0.70;;;10.90;99.90;;;;;;5087827;28;20327;-86
2024/03/14 00:25:26;;;;;;;2.05;1.02;;;10.90;99.90;;;;;;5105282;28;20128;-84
2024/03/14 00:27:52;;;;;;;2.00;0.95;;;10.90;99.90;;;;;;5068074;28;20163;-84
2024/03/14 00:30:18;;;;;;;2.25;1.00;;;10.90;99.90;;;;;;5089332;28;20036;-84
2024/03/14 00:32:44;;;;;;;1.50;0.98;;;10.90;99.90;;;;;;5090334;28;20146;-83
2024/03/14 00:35:12;;;;;;;1.60;0.88;;;10.90;99.90;;;;;;5073805;28;20063;-85
2024/03/14 00:37:39;;;;;;;1.85;0.90;;;10.90;99.90;;;;;;5089753;28;20468;-85
2024/03/14 00:40:08;;;;;;;2.10;1.00;;;10.80;99.90;;;;;;5105178;28;20028;-85
2024/03/14 00:42:34;;;;;;;2.20;1.13;;;10.80;99.90;;;;;;5089187;28;20089;-85
2024/03/14 00:45:00;;;;;;;2.38;1.10;;;10.80;99.90;;;;;;5088606;28;20115;-84
2024/03/14 00:47:29;;;;;;;3.03;1.25;;;10.80;99.90;;;;;;5074083;28;20032;-85
2024/03/14 00:49:55;;;;;;;2.00;0.80;;;10.80;99.90;;;;;;5086370;28;20077;-85
2024/03/14 00:52:21;;;;;;;0.98;0.85;;;10.80;99.90;;;;;;5073545;28;20139;-85
2024/03/14 00:54:47;;;;;;;1.75;0.90;;;10.80;99.90;;;;;;5088987;28;20036;-84
2024/03/14 00:57:12;;;;;;;4.60;1.10;;;10.80;99.90;;;;;;5083827;28;20047;-85
2024/03/14 00:59:39;;;;;;;1.58;1.02;;;10.80;99.90;;;;;;5083563;28;20063;-84
2024/03/14 01:02:06;;;;;;;2.40;1.08;;;10.70;99.90;;;;;;5088308;28;20048;-83
2024/03/14 01:04:31;;;;;;;1.98;1.10;;;10.70;99.90;;;;;;5085444;28;20050;-85
2024/03/14 01:06:57;;;;;;;1.50;0.98;;;10.70;99.90;;;;;;5088789;28;20131;-84
2024/03/14 01:09:24;;;;;;;2.38;1.48;;;10.70;99.90;;;;;;5087103;28;20040;-85
2024/03/14 01:11:54;;;;;;;4.95;1.45;;;10.70;99.90;;;;;;5072642;28;20154;-85
2024/03/14 01:14:20;;;;;;;2.15;1.05;;;10.70;99.90;;;;;;5090000;28;20031;-83
2024/03/14 01:16:47;;;;;;;2.78;1.33;;;10.60;99.90;;;;;;5086950;28;20045;-85
2024/03/14 01:19:13;;;;;;;1.52;1.20;;;10.70;99.90;;;;;;5087861;28;20044;-83
2024/03/14 01:21:39;;;;;;;3.97;2.10;;;10.70;99.90;;;;;;5072693;28;20165;-84
2024/03/14 01:24:04;;;;;;;2.83;1.63;;;10.60;99.90;;;;;;5089750;28;20123;-85
2024/03/14 01:26:32;;;;;;;4.05;1.67;;;10.60;99.90;;;;;;5102905;28;20551;-83
2024/03/14 01:28:59;;;;;;;2.13;1.52;;;10.40;99.90;;;;;;5087633;28;20040;-82
2024/03/14 01:31:25;;;;;;;2.30;1.30;;;10.40;99.90;;;;;;5087024;28;20043;-84
2024/03/14 01:33:51;;;;;;;2.17;1.27;;;10.40;99.90;;;;;;5085983;28;20036;-84
2024/03/14 01:36:16;;;;;;;1.80;1.20;;;10.30;99.90;;;;;;5069428;28;20427;-85
2024/03/14 01:38:42;;;;;;;3.83;2.08;;;10.30;99.90;;;;;;5072113;28;20043;-85
2024/03/14 01:41:20;;;;;;;1.48;1.08;;;10.20;99.90;;;;;;5086528;28;20040;-83
2024/03/14 01:43:58;;;;;;;5.63;1.80;;;10.20;99.90;;;;;;5086895;28;20047;-83
2024/03/14 01:46:29;;;;;;;4.07;1.75;;;10.10;99.90;;;;;;5071032;28;20134;-85
2024/03/14 01:48:55;;;;;;;1.83;1.20;;;10.10;99.90;;;;;;5068417;28;20460;-86
2024/03/14 01:51:26;;;;;;;3.22;2.13;;;10.10;99.90;;;;;;5086377;28;20072;-86
2024/03/14 01:53:52;;;;;;;5.25;2.05;;;10.00;99.90;;;;;;5090121;28;20040;-85
2024/03/14 01:56:21;;;;;;;3.30;1.90;;;10.00;99.90;;;;;;5086086;28;20031;-85
2024/03/14 01:58:51;;;;;;;4.22;2.08;;;10.00;99.90;;;;;;5067917;28;20095;-85
2024/03/14 02:01:18;;;;;;;3.70;1.95;;;10.00;99.90;;;;;;5087834;28;20075;-85
2024/03/14 02:04:07;;;;;;;2.92;1.35;;;10.00;99.90;;;;;;5082971;28;20048;-85
2024/03/14 02:06:52;;;;;;;3.35;2.13;;;10.00;99.90;;;;;;5087225;28;20051;-85
2024/03/14 02:09:22;;;;;;;3.03;2.00;;;10.00;99.90;;;;;;5086356;28;20124;-85
2024/03/14 02:11:51;;;;;;;5.00;1.92;;;9.90;99.90;;;;;;5086637;28;20051;-84
2024/03/14 02:14:16;;;;;;;3.60;1.90;;;9.90;99.90;;;;;;5094971;28;20112;-85
2024/03/14 02:16:43;;;;;;;2.75;1.63;;;9.90;99.90;;;;;;5087032;28;20506;-85
2024/03/14 02:19:08;;;;;;;4.57;2.20;;;9.90;99.90;;;;;;5104395;28;20044;-84
2024/03/14 02:21:34;;;;;;;4.18;2.20;;;9.90;99.90;;;;;;5087475;28;20040;-84
2024/03/14 02:24:02;;;;;;;4.20;1.00;;;9.90;99.90;;;;;;5085521;28;20074;-84
2024/03/14 02:26:28;;;;;;;3.28;2.10;;;9.80;99.90;;;;;;5100781;28;20504;-84
2024/03/14 02:28:53;;;;;;;3.58;2.03;;;9.80;99.90;;;;;;5070301;28;20086;-84
2024/03/14 02:31:19;;;;;;;2.30;1.85;;;9.80;99.90;;;;;;5088449;28;20488;-84
2024/03/14 02:33:45;;;;;;;4.70;2.35;;;9.70;99.90;;;;;;5104660;28;20046;-84
2024/03/14 02:36:13;;;;;;;2.15;1.48;;;9.70;99.90;;;;;;5088708;28;20120;-84
2024/03/14 02:38:38;;;;;;;3.60;1.85;;;9.70;99.90;;;;;;5068120;28;20527;-84
2024/03/14 02:41:04;;;;;;;2.97;1.58;;;9.70;99.90;;;;;;5087835;28;20047;-83
2024/03/14 02:43:30;;;;;;;3.53;1.40;;;9.70;99.90;;;;;;5081659;28;20415;-84
2024/03/14 02:45:55;;;;;;;8.02;1.73;;;9.60;99.90;;;;;;5069739;28;20040;-85
2024/03/14 02:48:21;;;;;;;5.95;2.40;;;9.60;99.90;;;;;;5081613;28;20044;-85
2024/03/14 02:50:49;;;;;;;1.95;1.00;;;9.60;99.90;;;;;;5068046;28;20818;-84
2024/03/14 02:53:14;;;;;;;2.85;1.55;;;9.60;99.90;;;;;;5081176;28;20040;-84
2024/03/14 02:55:41;;;;;;;4.72;2.17;;;9.60;99.90;;;;;;5085789;28;20039;-84
2024/03/14 02:58:07;;;;;;;3.08;2.05;;;9.50;99.90;;;;;;5088084;28;20086;-85
2024/03/14 03:00:32;;;;;;;4.22;1.70;;;9.60;99.90;;;;;;5085494;28;20157;-85
2024/03/14 03:02:58;;;;;;;5.53;2.72;;;9.60;99.90;;;;;;5070706;28;20043;-85
2024/03/14 03:05:24;;;;;;;3.88;2.47;;;9.60;99.90;;;;;;5087152;28;20079;-86
2024/03/14 03:07:49;;;;;;;4.20;2.22;;;9.70;99.90;;;;;;5088836;28;20496;-85
2024/03/14 03:10:16;;;;;;;3.58;1.88;;;9.50;99.90;;;;;;5087342;28;20040;-85
2024/03/14 03:12:42;;;;;;;3.13;1.63;;;9.60;99.90;;;;;;5087905;28;20547;-85
2024/03/14 03:15:10;;;;;;;4.47;2.25;;;9.60;99.90;;;;;;5070701;28;20119;-84
2024/03/14 03:17:38;;;;;;;3.17;1.73;;;9.60;99.90;;;;;;5086607;28;20466;-85
2024/03/14 03:20:11;;;;;;;3.90;2.20;;;9.60;99.90;;;;;;5081382;28;20394;-86
2024/03/14 03:25:23;;;;;;;3.33;1.83;;;9.60;99.90;;;;;;5100310;28;20058;-83
2024/03/14 03:27:49;;;;;;;3.97;2.42;;;9.60;99.90;;;;;;5085457;28;20060;-85
2024/03/14 03:30:15;;;;;;;2.55;1.60;;;9.60;99.90;;;;;;5080788;28;20036;-86
2024/03/14 03:32:42;;;;;;;6.25;1.85;;;9.60;99.90;;;;;;5088297;28;20032;-86
2024/03/14 03:35:09;;;;;;;4.15;2.20;;;9.60;99.90;;;;;;5085231;28;20036;-86
2024/03/14 03:37:36;;;;;;;3.10;1.70;;;9.60;99.90;;;;;;5088440;28;20047;-86
2024/03/14 03:40:05;;;;;;;2.97;1.67;;;9.60;99.90;;;;;;5086664;28;20144;-84
2024/03/14 03:42:31;;;;;;;2.80;1.73;;;9.60;99.90;;;;;;5069970;28;20479;-85
2024/03/14 03:44:57;;;;;;;4.10;2.13;;;9.60;99.90;;;;;;5083868;28;20098;-85
2024/03/14 03:47:22;;;;;;;3.72;2.28;;;9.50;99.90;;;;;;5087268;28;20036;-85
2024/03/14 03:49:48;;;;;;;2.90;2.22;;;9.60;99.90;;;;;;5068622;28;20044;-86
2024/03/14 03:52:14;;;;;;;5.00;2.42;;;9.60;99.90;;;;;;5091114;28;20044;-86
2024/03/14 03:54:40;;;;;;;3.08;1.85;;;9.60;99.90;;;;;;5090805;28;20040;-84
2024/03/14 03:57:05;;;;;;;3.85;1.80;;;9.50;99.90;;;;;;5090530;28;20046;-85
2024/03/14 03:59:31;;;;;;;4.20;2.17;;;9.50;99.90;;;;;;5083939;28;20528;-82
2024/03/14 04:01:57;;;;;;;2.95;1.85;;;9.40;99.90;;;;;;5087944;28;20048;-86
2024/03/14 04:04:22;;;;;;;2.95;1.90;;;9.50;99.90;;;;;;5091681;28;20087;-86
2024/03/14 04:06:48;;;;;;;3.88;1.63;;;9.40;99.90;;;;;;5089391;28;20097;-85
2024/03/14 04:09:16;;;;;;;2.17;1.17;;;9.40;99.90;;;;;;5091497;28;20427;-86
2024/03/14 04:11:42;;;;;;;3.70;2.45;;;9.40;99.90;;;;;;5088174;28;20048;-86
2024/03/14 04:14:09;;;;;;;5.47;2.00;;;9.30;99.90;;;;;;5091937;28;20445;-86
2024/03/14 04:16:38;;;;;;;2.10;1.60;;;9.30;99.90;;;;;;5081654;28;20068;-85
2024/03/14 04:19:05;;;;;;;2.58;1.73;;;9.30;99.90;;;;;;5087446;28;20040;-85
2024/03/14 04:21:31;;;;;;;3.42;1.77;;;9.30;99.90;;;;;;5088978;28;20075;-83
2024/03/14 04:23:57;;;;;;;2.60;1.17;;;9.20;99.90;;;;;;5085113;28;20075;-85
2024/03/14 04:26:23;;;;;;;3.03;1.70;;;9.20;99.90;;;;;;5069992;28;20048;-83
2024/03/14 04:28:49;;;;;;;3.15;1.65;;;9.20;99.90;;;;;;5090628;28;20368;-85
2024/03/14 04:31:17;;;;;;;3.10;1.70;;;9.10;99.90;;;;;;5087814;28;20067;-86
2024/03/14 04:33:43;;;;;;;3.22;2.05;;;9.10;99.90;;;;;;5088972;28;20652;-85
2024/03/14 04:36:09;;;;;;;2.97;1.88;;;9.10;99.90;;;;;;5090168;28;20236;-85
2024/03/14 04:38:35;;;;;;;2.38;1.55;;;9.10;99.90;;;;;;5108159;28;20507;-86
2024/03/14 04:41:00;;;;;;;2.40;1.42;;;9.10;99.90;;;;;;5088325;28;20452;-85
2024/03/14 04:43:27;;;;;;;2.40;1.55;;;9.00;99.90;;;;;;5089895;28;20206;-84
2024/03/14 04:45:53;;;;;;;3.47;1.88;;;9.00;99.90;;;;;;5085576;28;20048;-86
2024/03/14 04:48:18;;;;;;;3.05;1.67;;;9.00;99.90;;;;;;5104707;28;20042;-87
2024/03/14 04:50:46;;;;;;;2.38;1.33;;;9.00;99.90;;;;;;5073945;28;20036;-86
2024/03/14 04:53:12;;;;;;;2.95;1.58;;;9.00;99.90;;;;;;5103919;28;20105;-84
2024/03/14 04:55:41;;;;;;;4.60;2.08;;;9.00;99.90;;;;;;5089813;28;20040;-85
2024/03/14 04:58:06;;;;;;;2.88;1.80;;;8.90;99.90;;;;;;5071203;28;20396;-85
2024/03/14 05:00:32;;;;;;;2.80;1.33;;;8.90;99.90;;;;;;5071358;28;20048;-84
2024/03/14 05:02:58;;;;;;;1.75;1.33;;;8.90;99.90;;;;;;5086818;28;20044;-85
2024/03/14 05:05:24;;;;;;;2.88;1.50;;;8.90;99.90;;;;;;5087641;28;20127;-84
2024/03/14 05:07:50;;;;;;;1.05;0.90;;;8.90;99.90;;;;;;5081524;28;20131;-84
2024/03/14 05:10:19;;;;;;;2.63;1.17;;;8.90;99.90;;;;;;5070828;28;20039;-85
2024/03/14 05:12:45;;;;;;;3.25;1.35;;;8.80;99.90;;;;;;5085244;28;20089;-83
2024/03/14 05:15:11;;;;;;;3.17;1.70;;;8.80;99.90;;;;;;5087328;28;20031;-84
2024/03/14 05:17:41;;;;;;;2.22;1.33;;;8.80;99.90;;;;;;5066800;28;20036;-85
2024/03/14 05:20:10;;;;;;;2.30;1.50;;;8.80;99.90;;;;;;5087896;28;20448;-85
2024/03/14 05:22:36;;;;;;;1.75;1.15;;;8.80;99.90;;;;;;5088292;28;20114;-85
2024/03/14 05:25:06;;;;;;;3.08;1.80;;;8.80;99.90;;;;;;5103387;28;20038;-83
2024/03/14 05:27:32;;;;;;;2.28;1.55;;;8.80;99.90;;;;;;5090207;28;20044;-85
2024/03/14 05:29:59;;;;;;;3.50;1.50;;;8.70;99.90;;;;;;5088647;28;20101;-85
2024/03/14 05:32:34;;;;;;;2.63;1.85;;;8.70;99.90;;;;;;5085117;28;20050;-86
2024/03/14 05:34:59;;;;;;;2.35;1.27;;;8.70;99.90;;;;;;5089711;28;20075;-85
2024/03/14 05:37:25;;;;;;;3.63;2.05;;;8.70;99.90;;;;;;5089197;28;20068;-85
2024/03/14 05:39:51;;;;;;;2.58;1.55;;;8.70;99.90;;;;;;5101914;28;20507;-85
2024/03/14 05:42:18;;;;;;;3.25;1.45;;;8.70;99.90;;;;;;5089166;28;20065;-85
2024/03/14 05:44:48;;;;;;;2.90;1.83;;;8.70;99.90;;;;;;5086292;28;20052;-85
2024/03/14 05:47:17;;;;;;;2.83;1.25;;;8.80;99.90;;;;;;5088625;28;20109;-86
2024/03/14 05:49:43;;;;;;;2.30;1.70;;;8.80;99.90;;;;;;5086176;28;20134;-85
2024/03/14 05:52:10;;;;;;;1.63;1.38;;;8.80;99.90;;;;;;5106382;28;20120;-85
2024/03/14 05:54:36;;;;;;;2.72;1.48;;;8.80;99.90;;;;;;5086693;28;20042;-85
2024/03/14 05:57:02;;;;;;;2.97;2.13;;;8.80;99.90;;;;;;5085922;28;20036;-83
2024/03/14 05:59:28;;;;;;;2.67;1.58;;;8.80;99.90;;;;;;5069905;28;20048;-85
2024/03/14 06:01:54;;;;;;;3.80;2.17;;;8.70;99.90;;;;;;5088044;28;20416;-84
2024/03/14 06:04:21;;;;;;;3.67;2.28;;;8.80;99.90;;;;;;5085848;28;20035;-85
2024/03/14 06:06:48;;;;;;;2.80;1.70;;;8.90;99.90;;;;;;5067653;28;20038;-84
2024/03/14 06:09:15;;;;;;;7.85;2.10;;;8.90;99.90;;;;;;5081710;28;20196;-84
2024/03/14 06:11:44;;;;;;;3.63;1.80;;;8.80;99.90;;;;;;5085649;28;20047;-84
2024/03/14 06:14:10;;;;;;;2.95;1.58;;;8.80;99.90;;;;;;5086115;28;20039;-84
2024/03/14 06:16:36;;;;;;;2.35;1.48;;;8.80;99.90;;;;;;5103632;28;20074;-85
2024/03/14 06:19:02;;;;;;;2.42;1.65;;;8.80;99.90;;;;;;5070456;28;20036;-84
2024/03/14 06:21:27;;;;;;;3.33;2.05;;;8.80;99.90;;;;;;5088007;28;20040;-85
2024/03/14 06:23:55;;;;;;;2.65;1.67;;;8.90;99.90;;;;;;5087847;28;20063;-82
2024/03/14 06:26:21;;;;;;;2.65;1.60;;;8.90;99.90;;;;;;5071191;28;20040;-85
2024/03/14 06:28:47;;;;;;;5.03;2.58;;;8.90;99.90;;;;;;5069857;28;20457;-85
2024/03/14 06:31:15;;;;;;;3.90;2.30;;;9.00;99.90;;;;;;5068747;28;20392;-83
2024/03/14 06:33:42;;;;;;;3.88;2.00;;;9.00;99.90;;;;;;5089846;28;20040;-83
2024/03/14 06:36:07;;;;;;;3.50;2.33;;;9.00;99.90;;;;;;5087441;28;20089;-84
2024/03/14 06:38:33;;;;;;;3.95;2.58;;;9.10;99.90;;;;;;5083795;28;20040;-83
2024/03/14 06:40:59;;;;;;;4.25;2.30;;;9.10;99.90;;;;;;5085872;28;20073;-83
2024/03/14 06:43:25;;;;;;;3.80;2.75;;;9.10;99.90;;;;;;5090023;28;20142;-82
2024/03/14 06:45:51;;;;;;;4.78;2.20;;;9.10;99.90;;;;;;5085703;28;20051;-83
2024/03/14 06:48:17;;;;;;;4.68;2.08;;;9.20;99.90;;;;;;5087279;28;20444;-84
2024/03/14 06:50:45;;;;;;;4.43;2.05;;;9.20;99.90;;;;;;5085288;28;20078;-83
2024/03/14 06:53:11;;;;;;;3.70;2.38;;;9.20;99.90;;;;;;5088308;28;20434;-84
2024/03/14 06:55:37;;;;;;;3.60;2.25;;;9.20;99.90;;;;;;5082302;28;20046;-84
2024/03/14 06:58:03;;;;;;;4.18;2.60;;;9.40;99.90;;;;;;5066145;28;20032;-83
2024/03/14 07:00:30;;;;;;;3.97;2.35;;;9.30;99.90;;;;;;5083760;28;20044;-84
2024/03/14 07:02:56;;;;;;;4.38;2.63;;;9.40;99.90;;;;;;5083829;28;20166;-84
2024/03/14 07:05:24;;;;;;;3.92;2.65;;;9.40;99.90;;;;;;5084661;28;20075;-84
2024/03/14 07:07:50;;;;;;;4.00;2.45;;;9.50;99.90;;;;;;5066446;28;20040;-84
2024/03/14 07:10:19;;;;;;;4.97;2.15;;;9.50;99.90;;;;;;5082731;28;20124;-83
2024/03/14 07:12:47;;;;;;;4.15;2.50;;;9.50;99.90;;;;;;5084467;28;20054;-84
2024/03/14 07:15:13;;;;;;;3.67;2.47;;;9.60;99.90;;;;;;5087625;28;20036;-83
2024/03/14 07:17:40;;;;;;;4.18;2.33;;;9.60;99.90;;;;;;5088624;28;20488;-86
2024/03/14 07:20:09;;;;;;;5.45;3.35;;;9.70;99.90;;;;;;5087942;28;20051;-85
2024/03/14 07:22:43;;;;;;;5.25;3.30;;;9.80;99.90;;;;;;5087285;28;20483;-85
2024/03/14 07:25:11;;;;;;;3.67;2.22;;;9.80;99.90;;;;;;5085149;28;20105;-86
2024/03/14 07:27:38;;;;;;;6.00;2.78;;;9.90;99.90;;;;;;5071673;28;20079;-86
2024/03/14 07:30:07;;;;;;;4.20;2.55;;;10.00;99.90;;;;;;5088801;28;20115;-85
2024/03/14 07:32:35;;;;;;;6.53;3.30;;;10.10;99.90;;;;;;5086421;28;20177;-85
2024/03/14 07:35:02;;;;;;;6.15;2.45;;;10.20;99.90;;;;;;5088302;28;20051;-86
2024/03/14 07:37:28;;;;;;;4.70;2.78;;;10.30;99.90;;;;;;5071468;28;20502;-84
2024/03/14 07:39:54;;;;;;;5.50;2.13;;;10.50;99.90;;;;;;5091415;28;20048;-85
2024/03/14 07:42:21;;;;;;;7.20;3.05;;;10.70;99.90;;;;;;5104788;28;20406;-84
2024/03/14 07:44:47;;;;;;;5.45;2.90;;;10.80;99.90;;;;;;5078403;28;20044;-84
2024/03/14 07:47:19;;;;;;;4.78;2.92;;;10.90;99.90;;;;;;5071061;28;20032;-84
2024/03/14 07:49:51;;;;;;;4.97;3.00;;;11.20;99.90;;;;;;5089937;28;20052;-86
2024/03/14 07:52:17;;;;;;;3.90;2.28;;;11.30;99.90;;;;;;5087210;28;20066;-85
2024/03/14 07:54:45;;;;;;;3.80;2.10;;;11.40;99.90;;;;;;5097186;28;20036;-84
2024/03/14 07:57:15;;;;;;;4.63;2.13;;;11.40;99.90;;;;;;5088656;28;20093;-83
2024/03/14 07:59:43;;;;;;;3.50;2.33;;;11.50;99.90;;;;;;5088482;28;20460;-86
2024/03/14 08:02:12;;;;;;;2.88;2.15;;;11.40;99.90;;;;;;5075775;28;20044;-85
2024/03/14 08:04:47;;;;;;;3.92;1.90;;;11.40;99.90;;;;;;5073678;28;20040;-75
2024/03/14 08:07:17;;;;;;;3.20;2.05;;;11.50;99.90;;;;;;5091587;28;20096;-83
2024/03/14 08:09:43;;;;;;;3.65;2.10;;;11.50;99.90;;;;;;5079818;28;20073;-81
2024/03/14 08:12:09;;;;;;;3.60;2.30;;;11.50;99.90;;;;;;5093753;28;20448;-86
2024/03/14 08:14:35;;;;;;;3.80;2.28;;;11.60;99.90;;;;;;5075129;28;20051;-87
2024/03/14 08:17:11;;;;;;;3.50;2.78;;;11.70;99.90;;;;;;5074752;28;20567;-85
2024/03/14 08:19:38;;;;;;;4.47;2.55;;;12.00;99.90;;;;;;5069440;28;20044;-82
2024/03/14 08:22:06;;;;;;;3.65;2.17;;;12.20;99.90;;;;;;5090301;28;20048;-86
2024/03/14 08:24:42;;;;;;;5.20;2.50;;;12.60;99.90;;;;;;5087256;28;20468;-86
2024/03/14 08:27:09;;;;;;;4.05;2.10;;;12.70;99.90;;;;;;5072369;28;20036;-83
2024/03/14 08:29:35;;;;;;;4.57;2.45;;;12.70;99.90;;;;;;5065544;28;20915;-87
2024/03/14 08:32:03;;;;;;;3.78;2.20;;;12.70;99.90;;;;;;5087936;28;20073;-87
2024/03/14 08:34:29;;;;;;;3.85;2.33;;;13.10;99.90;;;;;;5070324;28;20032;-87
2024/03/14 08:36:58;;;;;;;3.58;2.00;;;13.50;99.90;;;;;;5104180;28;20138;-88
2024/03/14 08:39:26;;;;;;;4.10;2.13;;;14.10;99.90;;;;;;5069935;28;20044;-85
2024/03/14 08:41:53;;;;;;;4.43;2.15;;;14.60;99.90;;;;;;5089376;28;20051;-87
2024/03/14 08:44:20;;;;;;;7.22;2.47;;;15.00;99.90;;;;;;5085795;28;20410;-87
2024/03/14 08:46:49;;;;;;;3.65;2.15;;;15.10;99.90;;;;;;5105540;28;20508;-87
2024/03/14 08:49:15;;;;;;;13.73;2.50;;;15.10;99.90;;;;;;5091664;28;20051;-88
2024/03/14 08:51:42;;;;;;;4.72;2.03;;;15.30;99.90;;;;;;5073885;28;20040;-87
2024/03/14 08:54:08;;;;;;;3.95;2.25;;;15.60;99.90;;;;;;5089085;28;20056;-88
2024/03/14 08:56:37;;;;;;;2.63;2.03;;;15.50;99.90;;;;;;5069919;28;20039;-85
2024/03/14 08:59:04;;;;;;;2.90;1.90;;;15.40;99.90;;;;;;5072994;28;20181;-87
2024/03/14 09:01:29;;;;;;;2.33;1.77;;;15.20;99.90;;;;;;5106020;28;20097;-85
2024/03/14 09:03:59;;;;;;;3.53;2.05;;;15.00;99.90;;;;;;5090736;28;20040;-87
2024/03/14 09:06:28;;;;;;;3.65;1.67;;;15.10;99.90;;;;;;5086796;28;20044;-87
2024/03/14 09:09:00;;;;;;;2.90;1.85;;;15.20;99.90;;;;;;5090347;28;20052;-87
2024/03/14 09:11:30;;;;;;;2.45;1.80;;;15.10;99.90;;;;;;5089390;28;20398;-87
2024/03/14 09:13:56;;;;;;;3.63;1.73;;;15.00;99.90;;;;;;5091727;28;20455;-87
2024/03/14 09:16:21;;;;;;;4.05;2.42;;;14.80;99.90;;;;;;5086940;28;20040;-86
2024/03/14 09:18:48;;;;;;;2.80;1.88;;;14.80;99.90;;;;;;5070967;28;20035;-87
2024/03/14 09:21:14;;;;;;;5.75;2.50;;;14.90;99.90;;;;;;5072006;28;20058;-86
2024/03/14 09:23:40;;;;;;;2.42;1.80;;;15.10;99.90;;;;;;5088282;28;20051;-87
2024/03/14 09:26:05;;;;;;;3.28;1.77;;;15.40;99.90;;;;;;5086874;28;20044;-83
2024/03/14 09:28:32;;;;;;;2.97;1.75;;;15.60;99.90;;;;;;5086400;28;20120;-87
2024/03/14 09:30:58;;;;;;;2.97;1.83;;;15.90;99.90;;;;;;5066602;28;20044;-87
2024/03/14 09:33:26;;;;;;;2.58;1.25;;;16.00;99.90;;;;;;5084208;28;20062;-80
2024/03/14 09:35:52;;;;;;;2.47;1.55;;;16.40;99.90;;;;;;5090147;28;20036;-88
2024/03/14 09:38:17;;;;;;;1.98;1.33;;;16.60;99.90;;;;;;5073097;28;20054;-88
2024/03/14 09:40:43;;;;;;;2.40;1.48;;;16.60;99.90;;;;;;5072577;28;20514;-81
2024/03/14 09:43:19;;;;;;;2.90;1.73;;;16.70;99.90;;;;;;5091473;28;20054;-87
2024/03/14 09:45:47;;;;;;;2.03;1.75;;;16.90;99.90;;;;;;5089629;28;20473;-87
2024/03/14 09:48:12;;;;;;;2.08;1.40;;;16.90;99.90;;;;;;5069780;28;20502;-88
2024/03/14 09:50:38;;;;;;;1.83;1.15;;;17.40;99.90;;;;;;5091072;28;20036;-87
2024/03/14 09:53:05;;;;;;;2.10;1.55;;;17.90;99.90;;;;;;5107302;28;20100;-87
2024/03/14 09:55:32;;;;;;;4.00;1.40;;;18.50;99.90;;;;;;5108031;28;20032;-88
2024/03/14 09:58:01;;;;;;;1.77;1.05;;;19.20;99.90;;;;;;5090906;28;20403;-88
2024/03/14 10:00:27;;;;;;;2.47;1.00;;;20.00;99.90;;;;;;5077158;28;20052;-88
2024/03/14 10:02:55;;;;;;;2.55;0.88;;;20.90;99.90;;;;;;5089221;28;20036;-88
2024/03/14 10:05:22;;;;;;;1.38;0.95;;;21.60;99.90;;;;;;5090102;28;20227;-87
2024/03/14 10:07:48;;;;;;;2.35;1.35;;;21.70;99.90;;;;;;5088061;28;20047;-88
2024/03/14 10:10:15;;;;;;;1.48;0.80;;;21.70;99.90;;;;;;5070710;28;20059;-87
2024/03/14 10:12:52;;;;;;;2.08;1.20;;;21.60;99.90;;;;;;5089088;28;20036;-89
2024/03/14 10:15:20;;;;;;;1.08;0.82;;;21.50;99.90;;;;;;5087026;28;20042;-85
2024/03/14 10:17:51;;;;;;;1.25;0.70;;;21.40;99.90;;;;;;5064809;28;20043;-88
2024/03/14 10:20:20;;;;;;;1.30;1.05;;;20.80;99.90;;;;;;5088814;28;20433;-81
2024/03/14 10:22:49;;;;;;;1.17;0.60;;;20.00;99.90;;;;;;5070020;28;20078;-90
2024/03/14 10:25:28;;;;;;;2.13;1.00;;;19.40;99.90;;;;;;5107060;28;20551;-89
2024/03/14 10:27:55;;;;;;;1.23;0.90;;;18.70;99.90;;;;;;5073290;28;20064;-90
2024/03/14 10:30:23;;;;;;;1.88;1.20;;;18.30;99.90;;;;;;5095648;28;20044;-85
2024/03/14 10:32:49;;;;;;;1.55;1.15;;;18.10;99.90;;;;;;5078239;28;20035;-91
2024/03/14 10:35:15;;;;;;;1.52;0.63;;;18.20;99.90;;;;;;5104105;28;20043;-87
2024/03/14 10:37:48;;;;;;;2.30;1.35;;;18.20;99.90;;;;;;5085875;28;20047;-89
2024/03/14 10:40:20;;;;;;;1.85;1.13;;;18.40;99.90;;;;;;5123381;28;20043;-88
2024/03/14 10:42:49;;;;;;;1.52;0.90;;;18.50;99.90;;;;;;5108910;28;20122;-86
2024/03/14 10:45:18;;;;;;;1.17;0.70;;;18.40;99.90;;;;;;5085541;28;20062;-88
2024/03/14 10:47:49;;;;;;;1.95;1.00;;;18.40;99.90;;;;;;5089295;28;20036;-82
2024/03/14 10:50:19;;;;;;;8.45;1.45;;;18.70;99.90;;;;;;5035031;23;20064;-85
2024/03/14 10:52:49;;;;;;;1.35;0.63;;;19.20;99.90;;;;;;5024735;28;20056;-86
2024/03/14 10:55:21;;;;;;;2.75;1.05;;;19.50;99.90;;;;;;5024138;28;20048;-85
2024/03/14 10:57:49;;;;;;;1.58;0.90;;;19.90;99.90;;;;;;5009831;28;20124;-84
2024/03/14 11:00:19;;;;;;;1.13;0.60;;;20.40;99.90;;;;;;5021582;28;20046;-85
2024/03/14 11:02:49;;;;;;;1.63;0.75;;;21.00;99.90;;;;;;5021385;28;20045;-86
2024/03/14 11:05:34;;;;;;;1.83;0.68;;;20.80;99.90;;;;;;4996740;28;20045;-85
2024/03/14 11:08:00;;;;;;;1.98;0.50;;;20.30;99.90;;;;;;5003343;28;20045;-84
2024/03/14 11:10:28;;;;;;;0.85;0.50;;;19.70;99.90;;;;;;5005112;28;20044;-85
2024/03/14 11:13:16;;;;;;;1.20;0.95;;;19.80;99.90;;;;;;4998797;28;20549;-85
2024/03/14 11:15:42;;;;;;;1.52;0.73;;;20.60;99.90;;;;;;4994121;28;20041;-85
2024/03/14 11:18:16;;;;;;;2.83;1.15;;;21.30;99.90;;;;;;4995743;28;20116;-85
2024/03/14 11:20:49;;;;;;;0.85;0.65;;;21.80;99.90;;;;;;5007008;28;20041;-85
2024/03/14 11:23:19;;;;;;;1.02;0.63;;;21.80;99.90;;;;;;4993600;28;20045;-85
2024/03/14 11:25:52;;;;;;;1.52;0.40;;;21.20;99.90;;;;;;5013382;28;20040;-85
2024/03/14 11:28:19;;;;;;;1.77;0.50;;;20.40;99.90;;;;;;5006857;28;20030;-84
2024/03/14 11:30:51;;;;;;;1.58;0.95;;;19.70;99.90;;;;;;5011041;28;20049;-84
2024/03/14 11:33:19;;;;;;;4.38;0.95;;;19.20;99.90;;;;;;4996682;28;20041;-84
2024/03/14 11:35:45;;;;;;;4.10;0.80;;;18.90;99.90;;;;;;5027200;28;20083;-85
2024/03/14 11:38:20;;;;;;;0.98;0.68;;;18.60;99.90;;;;;;4994243;28;20037;-85
2024/03/14 11:40:46;;;;;;;0.82;0.60;;;18.30;99.90;;;;;;5002305;28;20033;-85
2024/03/14 11:43:25;;;;;;;1.40;0.80;;;18.20;99.90;;;;;;4990048;28;20077;-85
2024/03/14 11:45:59;;;;;;;1.65;0.85;;;18.10;99.90;;;;;;5002097;28;20136;-85
2024/03/14 11:48:28;;;;;;;0.98;0.65;;;18.60;99.90;;;;;;5008081;28;20604;-84
2024/03/14 11:50:56;;;;;;;0.47;0.30;;;19.10;99.90;;;;;;5010542;28;20097;-84
2024/03/14 11:53:22;;;;;;;3.15;0.68;;;19.70;99.90;;;;;;5010642;28;20067;-85
2024/03/14 11:55:48;;;;;;;1.30;0.68;;;20.20;99.90;;;;;;5007327;28;20041;-85
2024/03/14 11:58:18;;;;;;;1.70;0.80;;;20.90;99.90;;;;;;5005908;28;20037;-85
2024/03/14 12:00:51;;;;;;;1.08;0.30;;;21.70;99.90;;;;;;5004657;28;20136;-85
2024/03/14 12:03:18;;;;;;;0.50;0.20;;;22.40;99.90;;;;;;5009299;28;20072;-84
2024/03/14 12:05:58;;;;;;;1.48;0.30;;;22.90;99.90;;;;;;4990958;28;20387;-84
2024/03/14 12:08:27;;;;;;;0.70;0.30;;;23.30;99.90;;;;;;5024930;28;20037;-84
2024/03/14 12:10:54;;;;;;;1.13;0.40;;;23.80;99.90;;;;;;4997671;28;20053;-84
2024/03/14 12:13:23;;;;;;;0.80;0.38;;;24.30;99.90;;;;;;5018815;28;20045;-82
2024/03/14 12:16:02;;;;;;;2.08;0.40;;;24.40;99.90;;;;;;5042299;22;20058;-79
2024/03/14 12:18:29;;;;;;;1.40;0.35;;;24.50;99.90;;;;;;5026951;28;20052;-80
2024/03/14 12:20:55;;;;;;;0.32;0.20;;;24.50;99.90;;;;;;5009577;28;20052;-80
2024/03/14 12:23:23;;;;;;;0.28;0.10;;;24.40;99.90;;;;;;5032127;28;20046;-79
2024/03/14 12:25:56;;;;;;;0.82;0.40;;;24.50;99.90;;;;;;4996168;28;20069;-79
2024/03/14 12:28:23;;;;;;;0.25;0.20;;;24.40;99.90;;;;;;5002176;28;20037;-79
2024/03/14 12:30:59;;;;;;;0.98;0.43;;;24.20;99.90;;;;;;5011451;28;20053;-79
2024/03/14 12:33:30;;;;;;;1.10;0.45;;;24.30;99.90;;;;;;5007707;28;20037;-79
2024/03/14 12:35:56;;;;;;;1.15;0.30;;;24.50;99.90;;;;;;4995652;28;20037;-79
2024/03/14 12:38:22;;;;;;;1.10;0.40;;;24.80;99.90;;;;;;5022283;28;20045;-80
2024/03/14 12:40:50;;;;;;;0.45;0.20;;;24.80;99.90;;;;;;4999260;28;20033;-80
2024/03/14 12:43:16;;;;;;;0.25;0.20;;;24.70;99.90;;;;;;5019236;28;20072;-80
2024/03/14 12:45:44;;;;;;;2.95;0.45;;;24.30;99.90;;;;;;5008357;28;20448;-79
2024/03/14 12:48:15;;;;;;;0.53;0.30;;;24.00;99.50;;;;;;5020756;28;20549;-81
2024/03/14 12:50:41;;;;;;;0.70;0.20;;;24.00;99.90;;;;;;5015165;28;20494;-79
2024/03/14 12:53:12;;;;;;;0.75;0.40;;;24.10;99.90;;;;;;5008127;28;20037;-80
2024/03/14 12:55:49;;;;;;;0.73;0.32;;;24.30;99.90;;;;;;5020206;28;20037;-81